sensor_id;sensor_type;location;lat;lon;timestamp;P1;durP1;ratioP1;P2;durP2;ratioP2
40322;SDS011;26030;51.164;17.100;2023-04-25T00:03:15;12.30;;;7.40;;
40322;SDS011;26030;51.164;17.100;2023-04-25T00:08:22;9.50;;;7.30;;
40322;SDS011;26030;51.164;17.100;2023-04-25T00:13:27;10.40;;;7.40;;
40322;SDS011;26030;51.164;17.100;2023-04-25T00:18:31;11.70;;;7.40;;
40322;SDS011;26030;51.164;17.100;2023-04-25T00:23:37;9.60;;;7.40;;
40322;SDS011;26030;51.164;17.100;2023-04-25T00:28:42;10.30;;;6.70;;
40322;SDS011;26030;51.164;17.100;2023-04-25T00:33:47;8.50;;;6.60;;
40322;SDS011;26030;51.164;17.100;2023-04-25T00:38:53;9.30;;;6.80;;
40322;SDS011;26030;51.164;17.100;2023-04-25T00:43:59;8.70;;;7.30;;
40322;SDS011;26030;51.164;17.100;2023-04-25T00:49:04;11.10;;;7.80;;
40322;SDS011;26030;51.164;17.100;2023-04-25T00:54:08;8.20;;;6.60;;
40322;SDS011;26030;51.164;17.100;2023-04-25T00:59:12;7.40;;;6.60;;
40322;SDS011;26030;51.164;17.100;2023-04-25T01:04:17;7.30;;;6.40;;
40322;SDS011;26030;51.164;17.100;2023-04-25T01:09:22;7.90;;;6.90;;
40322;SDS011;26030;51.164;17.100;2023-04-25T01:14:27;7.90;;;6.50;;
40322;SDS011;26030;51.164;17.100;2023-04-25T01:19:31;9.20;;;6.70;;
40322;SDS011;26030;51.164;17.100;2023-04-25T01:24:35;9.60;;;6.60;;
40322;SDS011;26030;51.164;17.100;2023-04-25T01:29:40;7.10;;;5.90;;
40322;SDS011;26030;51.164;17.100;2023-04-25T01:34:44;7.20;;;6.20;;
40322;SDS011;26030;51.164;17.100;2023-04-25T01:39:48;8.30;;;6.10;;
40322;SDS011;26030;51.164;17.100;2023-04-25T01:44:54;6.20;;;5.20;;
40322;SDS011;26030;51.164;17.100;2023-04-25T01:49:58;7.20;;;5.50;;
40322;SDS011;26030;51.164;17.100;2023-04-25T01:55:03;6.60;;;5.40;;
40322;SDS011;26030;51.164;17.100;2023-04-25T02:00:10;6.90;;;5.40;;
40322;SDS011;26030;51.164;17.100;2023-04-25T02:05:17;6.00;;;5.20;;
40322;SDS011;26030;51.164;17.100;2023-04-25T02:10:21;5.70;;;5.10;;
40322;SDS011;26030;51.164;17.100;2023-04-25T02:15:46;7.70;;;5.60;;
40322;SDS011;26030;51.164;17.100;2023-04-25T02:20:53;6.60;;;5.00;;
40322;SDS011;26030;51.164;17.100;2023-04-25T02:25:57;6.40;;;5.30;;
40322;SDS011;26030;51.164;17.100;2023-04-25T02:31:01;6.10;;;5.00;;
40322;SDS011;26030;51.164;17.100;2023-04-25T02:36:07;4.80;;;4.30;;
40322;SDS011;26030;51.164;17.100;2023-04-25T02:41:11;5.10;;;4.30;;
40322;SDS011;26030;51.164;17.100;2023-04-25T02:46:16;5.20;;;4.60;;
40322;SDS011;26030;51.164;17.100;2023-04-25T02:51:31;5.60;;;4.10;;
40322;SDS011;26030;51.164;17.100;2023-04-25T02:56:36;5.70;;;4.40;;
40322;SDS011;26030;51.164;17.100;2023-04-25T03:01:42;6.50;;;5.00;;
40322;SDS011;26030;51.164;17.100;2023-04-25T03:06:46;4.80;;;4.30;;
40322;SDS011;26030;51.164;17.100;2023-04-25T03:11:51;5.20;;;4.20;;
40322;SDS011;26030;51.164;17.100;2023-04-25T03:16:55;4.90;;;4.40;;
40322;SDS011;26030;51.164;17.100;2023-04-25T03:21:59;4.80;;;3.90;;
40322;SDS011;26030;51.164;17.100;2023-04-25T03:27:04;5.30;;;4.30;;
40322;SDS011;26030;51.164;17.100;2023-04-25T03:32:09;5.00;;;4.40;;
40322;SDS011;26030;51.164;17.100;2023-04-25T03:37:13;4.40;;;4.00;;
40322;SDS011;26030;51.164;17.100;2023-04-25T03:42:18;3.60;;;3.30;;
40322;SDS011;26030;51.164;17.100;2023-04-25T03:47:24;4.10;;;3.70;;
40322;SDS011;26030;51.164;17.100;2023-04-25T03:52:28;5.70;;;3.60;;
40322;SDS011;26030;51.164;17.100;2023-04-25T03:57:33;4.80;;;3.40;;
40322;SDS011;26030;51.164;17.100;2023-04-25T04:02:37;4.90;;;3.80;;
40322;SDS011;26030;51.164;17.100;2023-04-25T04:07:46;5.10;;;3.50;;
40322;SDS011;26030;51.164;17.100;2023-04-25T04:12:52;3.80;;;3.40;;
40322;SDS011;26030;51.164;17.100;2023-04-25T04:17:56;5.20;;;3.60;;
40322;SDS011;26030;51.164;17.100;2023-04-25T04:23:01;4.30;;;3.90;;
40322;SDS011;26030;51.164;17.100;2023-04-25T04:28:06;3.70;;;3.40;;
40322;SDS011;26030;51.164;17.100;2023-04-25T04:33:29;3.60;;;3.30;;
40322;SDS011;26030;51.164;17.100;2023-04-25T04:38:38;3.20;;;3.00;;
40322;SDS011;26030;51.164;17.100;2023-04-25T04:43:50;3.00;;;2.70;;
40322;SDS011;26030;51.164;17.100;2023-04-25T04:49:05;3.30;;;3.00;;
40322;SDS011;26030;51.164;17.100;2023-04-25T04:54:19;3.20;;;2.90;;
40322;SDS011;26030;51.164;17.100;2023-04-25T04:59:40;3.00;;;2.70;;
40322;SDS011;26030;51.164;17.100;2023-04-25T05:05:23;3.00;;;2.80;;
40322;SDS011;26030;51.164;17.100;2023-04-25T05:10:46;2.90;;;2.70;;
40322;SDS011;26030;51.164;17.100;2023-04-25T05:16:13;2.80;;;2.60;;
40322;SDS011;26030;51.164;17.100;2023-04-25T05:21:29;3.40;;;2.20;;
40322;SDS011;26030;51.164;17.100;2023-04-25T05:26:52;2.40;;;2.20;;
40322;SDS011;26030;51.164;17.100;2023-04-25T05:32:23;2.70;;;2.50;;
40322;SDS011;26030;51.164;17.100;2023-04-25T05:37:29;2.80;;;2.60;;
40322;SDS011;26030;51.164;17.100;2023-04-25T05:42:44;3.00;;;2.70;;
40322;SDS011;26030;51.164;17.100;2023-04-25T05:47:57;3.30;;;2.20;;
40322;SDS011;26030;51.164;17.100;2023-04-25T05:53:33;2.80;;;2.50;;
40322;SDS011;26030;51.164;17.100;2023-04-25T05:58:38;3.60;;;2.70;;
40322;SDS011;26030;51.164;17.100;2023-04-25T06:03:43;5.80;;;2.80;;
40322;SDS011;26030;51.164;17.100;2023-04-25T06:08:48;5.50;;;2.30;;
40322;SDS011;26030;51.164;17.100;2023-04-25T06:13:51;3.40;;;2.70;;
40322;SDS011;26030;51.164;17.100;2023-04-25T06:18:56;5.90;;;2.40;;
40322;SDS011;26030;51.164;17.100;2023-04-25T06:24:02;4.10;;;2.60;;
40322;SDS011;26030;51.164;17.100;2023-04-25T06:29:08;4.50;;;2.10;;
40322;SDS011;26030;51.164;17.100;2023-04-25T06:34:12;5.30;;;2.20;;
40322;SDS011;26030;51.164;17.100;2023-04-25T06:39:17;4.30;;;2.40;;
40322;SDS011;26030;51.164;17.100;2023-04-25T06:44:25;7.50;;;2.20;;
40322;SDS011;26030;51.164;17.100;2023-04-25T06:49:31;10.80;;;3.00;;
40322;SDS011;26030;51.164;17.100;2023-04-25T06:54:38;7.20;;;3.20;;
40322;SDS011;26030;51.164;17.100;2023-04-25T06:59:57;9.00;;;3.30;;
40322;SDS011;26030;51.164;17.100;2023-04-25T07:05:05;15.50;;;2.50;;
40322;SDS011;26030;51.164;17.100;2023-04-25T07:10:09;11.10;;;2.20;;
40322;SDS011;26030;51.164;17.100;2023-04-25T07:15:14;4.30;;;2.20;;
40322;SDS011;26030;51.164;17.100;2023-04-25T07:20:19;4.20;;;2.20;;
40322;SDS011;26030;51.164;17.100;2023-04-25T07:25:24;4.20;;;2.70;;
40322;SDS011;26030;51.164;17.100;2023-04-25T07:30:29;6.60;;;2.60;;
40322;SDS011;26030;51.164;17.100;2023-04-25T07:35:33;5.00;;;2.30;;
40322;SDS011;26030;51.164;17.100;2023-04-25T07:40:37;5.60;;;2.20;;
40322;SDS011;26030;51.164;17.100;2023-04-25T07:45:44;6.00;;;2.30;;
40322;SDS011;26030;51.164;17.100;2023-04-25T07:50:49;3.10;;;2.20;;
40322;SDS011;26030;51.164;17.100;2023-04-25T07:55:52;6.40;;;2.50;;
40322;SDS011;26030;51.164;17.100;2023-04-25T08:00:57;3.00;;;1.90;;
40322;SDS011;26030;51.164;17.100;2023-04-25T08:06:22;5.00;;;2.20;;
40322;SDS011;26030;51.164;17.100;2023-04-25T08:11:42;6.40;;;2.10;;
40322;SDS011;26030;51.164;17.100;2023-04-25T08:16:48;6.70;;;2.40;;
40322;SDS011;26030;51.164;17.100;2023-04-25T08:21:54;8.60;;;2.50;;
40322;SDS011;26030;51.164;17.100;2023-04-25T08:27:04;6.80;;;2.20;;
40322;SDS011;26030;51.164;17.100;2023-04-25T08:32:11;18.80;;;3.00;;
40322;SDS011;26030;51.164;17.100;2023-04-25T08:37:18;49.50;;;20.90;;
40322;SDS011;26030;51.164;17.100;2023-04-25T08:42:33;121.20;;;48.50;;
40322;SDS011;26030;51.164;17.100;2023-04-25T08:47:42;167.90;;;71.20;;
40322;SDS011;26030;51.164;17.100;2023-04-25T08:52:47;203.60;;;84.50;;
40322;SDS011;26030;51.164;17.100;2023-04-25T08:57:54;177.30;;;70.90;;
40322;SDS011;26030;51.164;17.100;2023-04-25T09:03:00;158.70;;;66.50;;
40322;SDS011;26030;51.164;17.100;2023-04-25T09:08:07;147.00;;;62.30;;
40322;SDS011;26030;51.164;17.100;2023-04-25T09:13:13;150.90;;;58.10;;
40322;SDS011;26030;51.164;17.100;2023-04-25T09:18:57;147.90;;;59.70;;
40322;SDS011;26030;51.164;17.100;2023-04-25T09:24:02;146.30;;;62.30;;
40322;SDS011;26030;51.164;17.100;2023-04-25T09:29:07;130.80;;;56.30;;
40322;SDS011;26030;51.164;17.100;2023-04-25T09:34:15;118.80;;;53.00;;
40322;SDS011;26030;51.164;17.100;2023-04-25T09:39:28;126.30;;;53.10;;
40322;SDS011;26030;51.164;17.100;2023-04-25T09:44:45;126.60;;;51.40;;
40322;SDS011;26030;51.164;17.100;2023-04-25T09:49:51;107.30;;;49.90;;
40322;SDS011;26030;51.164;17.100;2023-04-25T09:54:57;95.20;;;45.70;;
40322;SDS011;26030;51.164;17.100;2023-04-25T10:00:07;104.00;;;46.90;;
40322;SDS011;26030;51.164;17.100;2023-04-25T10:05:18;93.00;;;43.00;;
40322;SDS011;26030;51.164;17.100;2023-04-25T10:10:24;92.60;;;43.40;;
40322;SDS011;26030;51.164;17.100;2023-04-25T10:15:35;91.30;;;43.00;;
40322;SDS011;26030;51.164;17.100;2023-04-25T10:20:43;90.10;;;43.80;;
40322;SDS011;26030;51.164;17.100;2023-04-25T10:25:48;78.50;;;40.00;;
40322;SDS011;26030;51.164;17.100;2023-04-25T10:31:03;78.10;;;38.20;;
40322;SDS011;26030;51.164;17.100;2023-04-25T10:36:17;77.00;;;37.10;;
40322;SDS011;26030;51.164;17.100;2023-04-25T10:41:22;71.00;;;35.90;;
40322;SDS011;26030;51.164;17.100;2023-04-25T10:46:29;78.10;;;35.90;;
40322;SDS011;26030;51.164;17.100;2023-04-25T10:51:36;71.10;;;33.80;;
40322;SDS011;26030;51.164;17.100;2023-04-25T10:56:58;63.50;;;32.00;;
40322;SDS011;26030;51.164;17.100;2023-04-25T11:02:11;57.20;;;30.30;;
40322;SDS011;26030;51.164;17.100;2023-04-25T11:13:02;51.30;;;26.60;;
40322;SDS011;26030;51.164;17.100;2023-04-25T11:18:07;50.90;;;26.60;;
40322;SDS011;26030;51.164;17.100;2023-04-25T11:23:15;45.50;;;25.00;;
40322;SDS011;26030;51.164;17.100;2023-04-25T11:28:22;48.00;;;26.40;;
40322;SDS011;26030;51.164;17.100;2023-04-25T11:33:30;46.50;;;24.00;;
40322;SDS011;26030;51.164;17.100;2023-04-25T11:38:34;50.10;;;22.40;;
40322;SDS011;26030;51.164;17.100;2023-04-25T11:43:38;30.90;;;15.30;;
40322;SDS011;26030;51.164;17.100;2023-04-25T11:48:45;21.90;;;12.30;;
40322;SDS011;26030;51.164;17.100;2023-04-25T11:53:50;17.10;;;10.70;;
40322;SDS011;26030;51.164;17.100;2023-04-25T11:58:59;15.00;;;8.60;;
40322;SDS011;26030;51.164;17.100;2023-04-25T12:09:20;17.20;;;9.10;;
40322;SDS011;26030;51.164;17.100;2023-04-25T12:14:29;18.50;;;8.80;;
40322;SDS011;26030;51.164;17.100;2023-04-25T12:19:35;20.60;;;8.80;;
40322;SDS011;26030;51.164;17.100;2023-04-25T12:24:39;12.80;;;7.90;;
40322;SDS011;26030;51.164;17.100;2023-04-25T12:29:51;22.60;;;11.20;;
40322;SDS011;26030;51.164;17.100;2023-04-25T12:34:56;55.40;;;25.50;;
40322;SDS011;26030;51.164;17.100;2023-04-25T12:40:00;84.30;;;38.70;;
40322;SDS011;26030;51.164;17.100;2023-04-25T12:45:05;132.70;;;56.30;;
40322;SDS011;26030;51.164;17.100;2023-04-25T12:50:12;129.90;;;59.50;;
40322;SDS011;26030;51.164;17.100;2023-04-25T12:55:16;124.00;;;54.70;;
40322;SDS011;26030;51.164;17.100;2023-04-25T13:00:20;116.70;;;52.50;;
40322;SDS011;26030;51.164;17.100;2023-04-25T13:05:25;109.30;;;51.60;;
40322;SDS011;26030;51.164;17.100;2023-04-25T13:10:29;108.50;;;51.80;;
40322;SDS011;26030;51.164;17.100;2023-04-25T13:15:33;98.20;;;49.70;;
40322;SDS011;26030;51.164;17.100;2023-04-25T13:20:37;100.60;;;46.00;;
40322;SDS011;26030;51.164;17.100;2023-04-25T13:25:41;91.20;;;45.10;;
40322;SDS011;26030;51.164;17.100;2023-04-25T13:30:47;87.80;;;42.70;;
40322;SDS011;26030;51.164;17.100;2023-04-25T13:35:52;93.70;;;42.40;;
40322;SDS011;26030;51.164;17.100;2023-04-25T13:41:00;84.20;;;39.90;;
40322;SDS011;26030;51.164;17.100;2023-04-25T13:46:04;80.10;;;40.30;;
40322;SDS011;26030;51.164;17.100;2023-04-25T13:51:08;77.80;;;38.30;;
40322;SDS011;26030;51.164;17.100;2023-04-25T13:56:12;74.30;;;37.30;;
40322;SDS011;26030;51.164;17.100;2023-04-25T14:01:16;76.40;;;36.60;;
40322;SDS011;26030;51.164;17.100;2023-04-25T14:06:23;70.60;;;36.10;;
40322;SDS011;26030;51.164;17.100;2023-04-25T14:11:27;72.60;;;35.00;;
40322;SDS011;26030;51.164;17.100;2023-04-25T14:16:31;79.60;;;36.50;;
40322;SDS011;26030;51.164;17.100;2023-04-25T14:21:36;72.60;;;34.80;;
40322;SDS011;26030;51.164;17.100;2023-04-25T14:26:40;73.20;;;33.00;;
40322;SDS011;26030;51.164;17.100;2023-04-25T14:31:45;72.00;;;33.80;;
40322;SDS011;26030;51.164;17.100;2023-04-25T14:36:49;62.00;;;31.10;;
40322;SDS011;26030;51.164;17.100;2023-04-25T14:41:53;70.30;;;32.10;;
40322;SDS011;26030;51.164;17.100;2023-04-25T14:46:57;60.20;;;29.20;;
40322;SDS011;26030;51.164;17.100;2023-04-25T14:52:02;51.60;;;27.60;;
40322;SDS011;26030;51.164;17.100;2023-04-25T14:57:07;51.50;;;26.60;;
40322;SDS011;26030;51.164;17.100;2023-04-25T15:02:11;51.00;;;25.40;;
40322;SDS011;26030;51.164;17.100;2023-04-25T15:07:15;52.30;;;24.00;;
40322;SDS011;26030;51.164;17.100;2023-04-25T15:12:21;50.50;;;23.10;;
40322;SDS011;26030;51.164;17.100;2023-04-25T15:17:25;44.60;;;23.10;;
40322;SDS011;26030;51.164;17.100;2023-04-25T15:22:29;43.70;;;22.60;;
40322;SDS011;26030;51.164;17.100;2023-04-25T15:27:34;42.10;;;21.10;;
40322;SDS011;26030;51.164;17.100;2023-04-25T15:32:42;39.70;;;21.00;;
40322;SDS011;26030;51.164;17.100;2023-04-25T15:37:46;36.10;;;19.40;;
40322;SDS011;26030;51.164;17.100;2023-04-25T15:42:51;40.40;;;19.30;;
40322;SDS011;26030;51.164;17.100;2023-04-25T15:47:55;42.40;;;20.00;;
40322;SDS011;26030;51.164;17.100;2023-04-25T15:52:59;44.20;;;19.90;;
40322;SDS011;26030;51.164;17.100;2023-04-25T15:58:04;30.10;;;17.80;;
40322;SDS011;26030;51.164;17.100;2023-04-25T16:03:08;33.70;;;16.80;;
40322;SDS011;26030;51.164;17.100;2023-04-25T16:08:16;27.80;;;16.50;;
40322;SDS011;26030;51.164;17.100;2023-04-25T16:13:21;28.20;;;16.40;;
40322;SDS011;26030;51.164;17.100;2023-04-25T16:18:26;28.30;;;16.20;;
40322;SDS011;26030;51.164;17.100;2023-04-25T16:23:30;30.90;;;15.50;;
40322;SDS011;26030;51.164;17.100;2023-04-25T16:28:34;28.60;;;16.00;;
40322;SDS011;26030;51.164;17.100;2023-04-25T16:33:38;28.90;;;15.00;;
40322;SDS011;26030;51.164;17.100;2023-04-25T16:38:43;26.40;;;14.00;;
40322;SDS011;26030;51.164;17.100;2023-04-25T16:43:47;23.10;;;14.20;;
40322;SDS011;26030;51.164;17.100;2023-04-25T16:48:53;36.10;;;14.60;;
40322;SDS011;26030;51.164;17.100;2023-04-25T16:54:00;31.80;;;14.00;;
40322;SDS011;26030;51.164;17.100;2023-04-25T16:59:05;22.10;;;13.40;;
40322;SDS011;26030;51.164;17.100;2023-04-25T17:04:10;21.60;;;12.20;;
40322;SDS011;26030;51.164;17.100;2023-04-25T17:09:15;22.30;;;12.80;;
40322;SDS011;26030;51.164;17.100;2023-04-25T17:14:20;19.20;;;10.90;;
40322;SDS011;26030;51.164;17.100;2023-04-25T17:19:24;19.40;;;11.80;;
40322;SDS011;26030;51.164;17.100;2023-04-25T17:24:28;20.70;;;11.80;;
40322;SDS011;26030;51.164;17.100;2023-04-25T17:29:34;19.40;;;10.80;;
40322;SDS011;26030;51.164;17.100;2023-04-25T17:34:40;20.50;;;10.40;;
40322;SDS011;26030;51.164;17.100;2023-04-25T17:39:47;20.20;;;10.90;;
40322;SDS011;26030;51.164;17.100;2023-04-25T17:44:53;18.00;;;10.10;;
40322;SDS011;26030;51.164;17.100;2023-04-25T17:50:00;16.00;;;9.60;;
40322;SDS011;26030;51.164;17.100;2023-04-25T17:55:06;19.80;;;10.00;;
40322;SDS011;26030;51.164;17.100;2023-04-25T18:00:12;16.40;;;10.60;;
40322;SDS011;26030;51.164;17.100;2023-04-25T18:05:19;19.90;;;10.10;;
40322;SDS011;26030;51.164;17.100;2023-04-25T18:10:24;16.10;;;9.40;;
40322;SDS011;26030;51.164;17.100;2023-04-25T18:15:29;17.40;;;9.20;;
40322;SDS011;26030;51.164;17.100;2023-04-25T18:20:34;13.20;;;8.80;;
40322;SDS011;26030;51.164;17.100;2023-04-25T18:25:40;22.20;;;9.40;;
40322;SDS011;26030;51.164;17.100;2023-04-25T18:30:46;16.00;;;9.20;;
40322;SDS011;26030;51.164;17.100;2023-04-25T18:35:52;13.50;;;8.20;;
40322;SDS011;26030;51.164;17.100;2023-04-25T18:41:04;18.20;;;8.80;;
40322;SDS011;26030;51.164;17.100;2023-04-25T18:46:31;18.60;;;10.70;;
40322;SDS011;26030;51.164;17.100;2023-04-25T18:51:37;18.20;;;9.40;;
40322;SDS011;26030;51.164;17.100;2023-04-25T18:56:43;17.90;;;11.00;;
40322;SDS011;26030;51.164;17.100;2023-04-25T19:01:49;21.20;;;9.80;;
40322;SDS011;26030;51.164;17.100;2023-04-25T19:06:57;18.80;;;9.70;;
40322;SDS011;26030;51.164;17.100;2023-04-25T19:12:04;18.50;;;11.10;;
40322;SDS011;26030;51.164;17.100;2023-04-25T19:17:11;17.40;;;9.90;;
40322;SDS011;26030;51.164;17.100;2023-04-25T19:22:19;14.00;;;8.40;;
40322;SDS011;26030;51.164;17.100;2023-04-25T19:27:24;16.40;;;9.20;;
40322;SDS011;26030;51.164;17.100;2023-04-25T19:32:30;16.90;;;8.00;;
40322;SDS011;26030;51.164;17.100;2023-04-25T19:37:37;18.90;;;8.30;;
40322;SDS011;26030;51.164;17.100;2023-04-25T19:42:44;16.40;;;7.70;;
40322;SDS011;26030;51.164;17.100;2023-04-25T19:47:50;14.80;;;8.60;;
40322;SDS011;26030;51.164;17.100;2023-04-25T19:52:56;15.30;;;7.60;;
40322;SDS011;26030;51.164;17.100;2023-04-25T19:58:03;21.60;;;9.20;;
40322;SDS011;26030;51.164;17.100;2023-04-25T20:03:10;29.20;;;11.20;;
40322;SDS011;26030;51.164;17.100;2023-04-25T20:08:36;93.70;;;34.30;;
40322;SDS011;26030;51.164;17.100;2023-04-25T20:14:02;94.10;;;35.00;;
40322;SDS011;26030;51.164;17.100;2023-04-25T20:19:11;113.30;;;41.10;;
40322;SDS011;26030;51.164;17.100;2023-04-25T20:24:15;110.80;;;41.90;;
40322;SDS011;26030;51.164;17.100;2023-04-25T20:29:21;98.80;;;40.10;;
40322;SDS011;26030;51.164;17.100;2023-04-25T20:34:26;108.70;;;40.50;;
40322;SDS011;26030;51.164;17.100;2023-04-25T20:39:33;100.10;;;37.10;;
40322;SDS011;26030;51.164;17.100;2023-04-25T20:44:39;92.60;;;35.80;;
40322;SDS011;26030;51.164;17.100;2023-04-25T20:49:44;84.00;;;34.40;;
40322;SDS011;26030;51.164;17.100;2023-04-25T20:54:48;84.90;;;33.80;;
40322;SDS011;26030;51.164;17.100;2023-04-25T20:59:55;84.40;;;34.60;;
40322;SDS011;26030;51.164;17.100;2023-04-25T21:05:00;83.00;;;33.40;;
40322;SDS011;26030;51.164;17.100;2023-04-25T21:10:05;82.20;;;32.50;;
40322;SDS011;26030;51.164;17.100;2023-04-25T21:15:10;71.70;;;30.70;;
40322;SDS011;26030;51.164;17.100;2023-04-25T21:20:16;70.80;;;30.60;;
40322;SDS011;26030;51.164;17.100;2023-04-25T21:25:25;64.00;;;27.70;;
40322;SDS011;26030;51.164;17.100;2023-04-25T21:30:42;56.90;;;24.50;;
40322;SDS011;26030;51.164;17.100;2023-04-25T21:35:48;43.50;;;22.90;;
40322;SDS011;26030;51.164;17.100;2023-04-25T21:40:57;44.10;;;22.10;;
40322;SDS011;26030;51.164;17.100;2023-04-25T21:46:06;45.20;;;21.40;;
40322;SDS011;26030;51.164;17.100;2023-04-25T21:51:27;45.80;;;21.50;;
40322;SDS011;26030;51.164;17.100;2023-04-25T21:56:40;41.00;;;19.90;;
40322;SDS011;26030;51.164;17.100;2023-04-25T22:01:54;39.00;;;19.80;;
40322;SDS011;26030;51.164;17.100;2023-04-25T22:07:07;42.60;;;19.50;;
40322;SDS011;26030;51.164;17.100;2023-04-25T22:12:19;33.80;;;18.40;;
40322;SDS011;26030;51.164;17.100;2023-04-25T22:23:19;35.20;;;18.70;;
40322;SDS011;26030;51.164;17.100;2023-04-25T22:28:24;32.00;;;17.00;;
40322;SDS011;26030;51.164;17.100;2023-04-25T22:33:31;36.90;;;16.20;;
40322;SDS011;26030;51.164;17.100;2023-04-25T22:38:37;42.90;;;17.30;;
40322;SDS011;26030;51.164;17.100;2023-04-25T22:43:43;36.50;;;18.20;;
40322;SDS011;26030;51.164;17.100;2023-04-25T22:48:47;40.10;;;17.50;;
40322;SDS011;26030;51.164;17.100;2023-04-25T22:53:52;28.30;;;15.60;;
40322;SDS011;26030;51.164;17.100;2023-04-25T22:58:57;30.50;;;16.50;;
40322;SDS011;26030;51.164;17.100;2023-04-25T23:04:01;27.20;;;15.30;;
40322;SDS011;26030;51.164;17.100;2023-04-25T23:09:06;29.20;;;16.80;;
40322;SDS011;26030;51.164;17.100;2023-04-25T23:14:14;30.40;;;15.00;;
40322;SDS011;26030;51.164;17.100;2023-04-25T23:19:20;26.50;;;14.40;;
40322;SDS011;26030;51.164;17.100;2023-04-25T23:24:24;28.60;;;15.20;;
40322;SDS011;26030;51.164;17.100;2023-04-25T23:29:30;31.00;;;15.10;;
40322;SDS011;26030;51.164;17.100;2023-04-25T23:34:37;27.20;;;14.60;;
40322;SDS011;26030;51.164;17.100;2023-04-25T23:39:49;30.50;;;14.20;;
40322;SDS011;26030;51.164;17.100;2023-04-25T23:44:54;26.70;;;13.90;;
40322;SDS011;26030;51.164;17.100;2023-04-25T23:50:01;28.10;;;14.30;;
40322;SDS011;26030;51.164;17.100;2023-04-25T23:55:06;26.20;;;13.90;;
